Terminal Aerodrome Forecast
Issued by NWS Portland, ME

Home | Current Version | Previous Version | Text Only | Print | Product List | Glossary On
Versions: 1 2 3 4 5 6 7 8 9 10 11 12 13 14 15 16 17 18 19 20 21 22 23 24 25 26 27 28 29 30 31
000
FTUS41 KGYX 021729 AAA
TAFCON
TAF AMD
KCON 021729Z 0217/0318 VRB03KT P6SM SCT050 BKN090
      TEMPO 0218/0219 2SM TSRA BR BKN050CB OVC080
     FM022000 23004KT P6SM SCT050 SCT080
      TEMPO 0301/0305 5SM -TSRA BR BKN030CB
     FM030500 VRB03KT 1SM BR BKN002
     FM030900 32007KT 4SM BR SCT050 BKN100
     FM031200 32012G20KT P6SM SCT050=

USA.gov is the U.S. government's official web portal to all federal, state and local government web resources and services.